sensor_id;sensor_type;location;lat;lon;timestamp;temperature;humidity
9414;DHT22;4746;35.664;139.738;2022-10-26T00:01:18;13.90;99.90
9414;DHT22;4746;35.664;139.738;2022-10-26T00:03:46;14.00;99.90
9414;DHT22;4746;35.664;139.738;2022-10-26T00:06:19;14.00;99.90
9414;DHT22;4746;35.664;139.738;2022-10-26T00:08:50;14.00;99.90
9414;DHT22;4746;35.664;139.738;2022-10-26T00:11:19;14.00;99.90
9414;DHT22;4746;35.664;139.738;2022-10-26T00:13:47;14.10;99.90
9414;DHT22;4746;35.664;139.738;2022-10-26T00:16:23;14.10;99.90
9414;DHT22;4746;35.664;139.738;2022-10-26T00:18:55;14.20;99.90
9414;DHT22;4746;35.664;139.738;2022-10-26T00:21:23;14.10;99.90
9414;DHT22;4746;35.664;139.738;2022-10-26T00:23:50;14.10;99.90
9414;DHT22;4746;35.664;139.738;2022-10-26T00:26:18;14.20;99.90
9414;DHT22;4746;35.664;139.738;2022-10-26T00:28:45;14.20;99.90
9414;DHT22;4746;35.664;139.738;2022-10-26T00:31:15;14.30;99.90
9414;DHT22;4746;35.664;139.738;2022-10-26T00:33:42;14.30;99.90
9414;DHT22;4746;35.664;139.738;2022-10-26T00:36:10;14.40;99.90
9414;DHT22;4746;35.664;139.738;2022-10-26T00:38:42;14.40;99.90
9414;DHT22;4746;35.664;139.738;2022-10-26T00:41:16;14.40;99.90
9414;DHT22;4746;35.664;139.738;2022-10-26T00:43:45;14.40;99.90
9414;DHT22;4746;35.664;139.738;2022-10-26T00:46:36;14.50;99.90
9414;DHT22;4746;35.664;139.738;2022-10-26T00:49:13;14.50;99.90
9414;DHT22;4746;35.664;139.738;2022-10-26T00:51:51;14.50;99.90
9414;DHT22;4746;35.664;139.738;2022-10-26T00:54:20;14.60;99.90
9414;DHT22;4746;35.664;139.738;2022-10-26T00:56:50;14.60;99.90
9414;DHT22;4746;35.664;139.738;2022-10-26T00:59:21;14.70;99.90
9414;DHT22;4746;35.664;139.738;2022-10-26T01:01:51;14.70;99.90
9414;DHT22;4746;35.664;139.738;2022-10-26T01:04:19;14.70;99.90
9414;DHT22;4746;35.664;139.738;2022-10-26T01:06:47;14.80;99.90
9414;DHT22;4746;35.664;139.738;2022-10-26T01:09:18;14.80;99.90
9414;DHT22;4746;35.664;139.738;2022-10-26T01:11:47;14.80;99.90
9414;DHT22;4746;35.664;139.738;2022-10-26T01:14:16;14.80;99.90
9414;DHT22;4746;35.664;139.738;2022-10-26T01:22:36;15.00;99.90
9414;DHT22;4746;35.664;139.738;2022-10-26T01:25:55;15.10;99.90
9414;DHT22;4746;35.664;139.738;2022-10-26T01:31:55;15.30;99.90
9414;DHT22;4746;35.664;139.738;2022-10-26T01:34:33;15.30;99.90
9414;DHT22;4746;35.664;139.738;2022-10-26T01:37:18;15.40;99.90
9414;DHT22;4746;35.664;139.738;2022-10-26T01:40:01;15.50;99.90
9414;DHT22;4746;35.664;139.738;2022-10-26T01:42:47;15.50;99.90
9414;DHT22;4746;35.664;139.738;2022-10-26T01:45:19;15.50;99.90
9414;DHT22;4746;35.664;139.738;2022-10-26T01:47:48;15.70;99.90
9414;DHT22;4746;35.664;139.738;2022-10-26T01:50:19;15.70;99.90
9414;DHT22;4746;35.664;139.738;2022-10-26T01:52:51;15.80;99.90
9414;DHT22;4746;35.664;139.738;2022-10-26T01:55:49;15.90;99.90
9414;DHT22;4746;35.664;139.738;2022-10-26T02:10:29;16.40;99.90
9414;DHT22;4746;35.664;139.738;2022-10-26T02:16:40;16.60;99.90
9414;DHT22;4746;35.664;139.738;2022-10-26T02:19:36;16.60;99.90
9414;DHT22;4746;35.664;139.738;2022-10-26T02:24:46;16.80;99.90
9414;DHT22;4746;35.664;139.738;2022-10-26T02:27:21;16.80;99.90
9414;DHT22;4746;35.664;139.738;2022-10-26T02:29:54;16.90;99.90
9414;DHT22;4746;35.664;139.738;2022-10-26T02:32:26;16.90;99.90
9414;DHT22;4746;35.664;139.738;2022-10-26T02:35:01;17.00;99.90
9414;DHT22;4746;35.664;139.738;2022-10-26T02:37:30;17.10;99.90
9414;DHT22;4746;35.664;139.738;2022-10-26T02:40:05;17.20;99.90
9414;DHT22;4746;35.664;139.738;2022-10-26T02:42:41;17.40;99.90
9414;DHT22;4746;35.664;139.738;2022-10-26T02:45:16;17.40;99.90
9414;DHT22;4746;35.664;139.738;2022-10-26T02:47:49;17.60;99.90
9414;DHT22;4746;35.664;139.738;2022-10-26T02:50:19;17.70;99.90
9414;DHT22;4746;35.664;139.738;2022-10-26T02:52:56;17.90;99.90
9414;DHT22;4746;35.664;139.738;2022-10-26T02:55:33;18.00;99.90
9414;DHT22;4746;35.664;139.738;2022-10-26T02:58:12;18.10;99.90
9414;DHT22;4746;35.664;139.738;2022-10-26T03:00:44;18.30;99.90
9414;DHT22;4746;35.664;139.738;2022-10-26T03:03:13;18.30;99.90
9414;DHT22;4746;35.664;139.738;2022-10-26T03:05:42;18.40;99.90
9414;DHT22;4746;35.664;139.738;2022-10-26T03:08:09;18.30;99.90
9414;DHT22;4746;35.664;139.738;2022-10-26T03:10:41;18.40;99.90
9414;DHT22;4746;35.664;139.738;2022-10-26T03:13:11;18.60;99.90
9414;DHT22;4746;35.664;139.738;2022-10-26T03:15:39;18.70;99.90
9414;DHT22;4746;35.664;139.738;2022-10-26T03:18:09;18.90;99.90
9414;DHT22;4746;35.664;139.738;2022-10-26T03:20:36;19.00;99.90
9414;DHT22;4746;35.664;139.738;2022-10-26T03:23:04;19.10;99.90
9414;DHT22;4746;35.664;139.738;2022-10-26T03:25:31;19.10;99.90
9414;DHT22;4746;35.664;139.738;2022-10-26T03:28:02;19.20;99.90
9414;DHT22;4746;35.664;139.738;2022-10-26T03:30:30;19.20;99.90
9414;DHT22;4746;35.664;139.738;2022-10-26T03:32:58;19.30;99.90
9414;DHT22;4746;35.664;139.738;2022-10-26T03:35:25;19.50;99.90
9414;DHT22;4746;35.664;139.738;2022-10-26T03:37:53;19.90;99.90
9414;DHT22;4746;35.664;139.738;2022-10-26T03:40:21;20.10;99.90
9414;DHT22;4746;35.664;139.738;2022-10-26T03:42:48;20.20;99.90
9414;DHT22;4746;35.664;139.738;2022-10-26T03:45:16;20.20;99.90
9414;DHT22;4746;35.664;139.738;2022-10-26T03:47:45;20.30;99.90
9414;DHT22;4746;35.664;139.738;2022-10-26T03:50:17;20.50;99.90
9414;DHT22;4746;35.664;139.738;2022-10-26T03:52:47;20.80;99.90
9414;DHT22;4746;35.664;139.738;2022-10-26T03:55:15;21.00;99.90
9414;DHT22;4746;35.664;139.738;2022-10-26T03:57:45;21.20;99.90
9414;DHT22;4746;35.664;139.738;2022-10-26T04:00:14;21.20;99.60
9414;DHT22;4746;35.664;139.738;2022-10-26T04:02:44;21.20;99.50
9414;DHT22;4746;35.664;139.738;2022-10-26T04:05:13;21.40;99.50
9414;DHT22;4746;35.664;139.738;2022-10-26T04:07:42;21.70;99.50
9414;DHT22;4746;35.664;139.738;2022-10-26T04:10:10;22.10;99.40
9414;DHT22;4746;35.664;139.738;2022-10-26T04:12:37;22.30;98.20
9414;DHT22;4746;35.664;139.738;2022-10-26T04:15:07;22.40;95.50
9414;DHT22;4746;35.664;139.738;2022-10-26T04:17:35;22.40;93.00
9414;DHT22;4746;35.664;139.738;2022-10-26T04:20:03;22.50;92.70
9414;DHT22;4746;35.664;139.738;2022-10-26T04:22:31;22.50;89.90
9414;DHT22;4746;35.664;139.738;2022-10-26T04:24:58;22.60;90.90
9414;DHT22;4746;35.664;139.738;2022-10-26T04:27:26;22.80;90.50
9414;DHT22;4746;35.664;139.738;2022-10-26T04:29:53;23.20;90.20
9414;DHT22;4746;35.664;139.738;2022-10-26T04:32:21;23.40;85.20
9414;DHT22;4746;35.664;139.738;2022-10-26T04:34:48;23.80;84.90
9414;DHT22;4746;35.664;139.738;2022-10-26T04:37:16;24.30;84.10
9414;DHT22;4746;35.664;139.738;2022-10-26T04:39:45;24.70;81.00
9414;DHT22;4746;35.664;139.738;2022-10-26T04:42:13;25.30;82.00
9414;DHT22;4746;35.664;139.738;2022-10-26T04:44:41;25.50;73.30
9414;DHT22;4746;35.664;139.738;2022-10-26T04:47:08;26.10;69.70
9414;DHT22;4746;35.664;139.738;2022-10-26T04:49:36;26.10;66.00
9414;DHT22;4746;35.664;139.738;2022-10-26T04:52:05;26.50;63.60
9414;DHT22;4746;35.664;139.738;2022-10-26T04:54:32;26.70;56.50
9414;DHT22;4746;35.664;139.738;2022-10-26T04:57:00;26.60;53.40
9414;DHT22;4746;35.664;139.738;2022-10-26T04:59:27;26.60;52.90
9414;DHT22;4746;35.664;139.738;2022-10-26T05:01:55;26.40;49.20
9414;DHT22;4746;35.664;139.738;2022-10-26T05:04:22;26.60;49.70
9414;DHT22;4746;35.664;139.738;2022-10-26T05:06:51;26.70;49.20
9414;DHT22;4746;35.664;139.738;2022-10-26T05:09:19;26.80;47.70
9414;DHT22;4746;35.664;139.738;2022-10-26T05:11:47;26.90;48.00
9414;DHT22;4746;35.664;139.738;2022-10-26T05:14:16;27.30;48.40
9414;DHT22;4746;35.664;139.738;2022-10-26T05:16:43;27.50;47.10
9414;DHT22;4746;35.664;139.738;2022-10-26T05:19:12;27.70;47.00
9414;DHT22;4746;35.664;139.738;2022-10-26T05:21:40;28.00;46.30
9414;DHT22;4746;35.664;139.738;2022-10-26T05:24:07;28.50;44.50
9414;DHT22;4746;35.664;139.738;2022-10-26T05:26:35;28.90;43.70
9414;DHT22;4746;35.664;139.738;2022-10-26T05:29:02;28.70;41.60
9414;DHT22;4746;35.664;139.738;2022-10-26T05:31:30;29.10;41.90
9414;DHT22;4746;35.664;139.738;2022-10-26T05:33:57;29.40;40.40
9414;DHT22;4746;35.664;139.738;2022-10-26T05:36:25;29.20;37.90
9414;DHT22;4746;35.664;139.738;2022-10-26T05:38:52;29.40;37.40
9414;DHT22;4746;35.664;139.738;2022-10-26T05:41:24;29.20;35.60
9414;DHT22;4746;35.664;139.738;2022-10-26T05:43:52;29.10;34.80
9414;DHT22;4746;35.664;139.738;2022-10-26T05:46:19;28.90;34.40
9414;DHT22;4746;35.664;139.738;2022-10-26T05:48:46;29.10;35.60
9414;DHT22;4746;35.664;139.738;2022-10-26T05:51:14;29.20;35.80
9414;DHT22;4746;35.664;139.738;2022-10-26T05:53:42;29.30;35.20
9414;DHT22;4746;35.664;139.738;2022-10-26T05:59:03;29.90;32.30
9414;DHT22;4746;35.664;139.738;2022-10-26T06:04:42;29.80;31.80
9414;DHT22;4746;35.664;139.738;2022-10-26T06:07:15;29.80;31.80
9414;DHT22;4746;35.664;139.738;2022-10-26T06:09:47;30.40;31.70
9414;DHT22;4746;35.664;139.738;2022-10-26T06:12:15;30.70;32.20
9414;DHT22;4746;35.664;139.738;2022-10-26T06:14:43;31.20;32.00
9414;DHT22;4746;35.664;139.738;2022-10-26T06:20:24;31.60;30.70
9414;DHT22;4746;35.664;139.738;2022-10-26T06:26:24;31.40;28.50
9414;DHT22;4746;35.664;139.738;2022-10-26T06:32:11;31.90;27.40
9414;DHT22;4746;35.664;139.738;2022-10-26T06:34:46;31.90;27.00
9414;DHT22;4746;35.664;139.738;2022-10-26T06:37:16;31.80;27.00
9414;DHT22;4746;35.664;139.738;2022-10-26T06:39:46;31.70;26.50
9414;DHT22;4746;35.664;139.738;2022-10-26T06:42:19;31.10;25.80
9414;DHT22;4746;35.664;139.738;2022-10-26T06:44:47;31.10;26.40
9414;DHT22;4746;35.664;139.738;2022-10-26T06:53:20;30.60;26.60
9414;DHT22;4746;35.664;139.738;2022-10-26T06:56:11;30.20;26.40
9414;DHT22;4746;35.664;139.738;2022-10-26T06:58:40;30.00;27.00
9414;DHT22;4746;35.664;139.738;2022-10-26T07:01:11;29.80;26.80
9414;DHT22;4746;35.664;139.738;2022-10-26T07:03:39;29.80;26.30
9414;DHT22;4746;35.664;139.738;2022-10-26T07:06:08;29.50;26.70
9414;DHT22;4746;35.664;139.738;2022-10-26T07:08:35;28.80;26.20
9414;DHT22;4746;35.664;139.738;2022-10-26T07:11:03;28.60;26.50
9414;DHT22;4746;35.664;139.738;2022-10-26T07:13:31;28.70;26.50
9414;DHT22;4746;35.664;139.738;2022-10-26T07:15:59;28.70;26.40
9414;DHT22;4746;35.664;139.738;2022-10-26T07:18:27;28.60;26.30
9414;DHT22;4746;35.664;139.738;2022-10-26T07:20:54;28.30;26.20
9414;DHT22;4746;35.664;139.738;2022-10-26T07:23:24;28.30;26.40
9414;DHT22;4746;35.664;139.738;2022-10-26T07:25:51;27.90;25.70
9414;DHT22;4746;35.664;139.738;2022-10-26T07:28:19;27.60;25.60
9414;DHT22;4746;35.664;139.738;2022-10-26T07:30:46;27.30;25.80
9414;DHT22;4746;35.664;139.738;2022-10-26T07:33:14;27.10;25.60
9414;DHT22;4746;35.664;139.738;2022-10-26T07:35:42;26.90;25.40
9414;DHT22;4746;35.664;139.738;2022-10-26T07:38:11;26.40;25.20
9414;DHT22;4746;35.664;139.738;2022-10-26T07:40:39;25.90;25.50
9414;DHT22;4746;35.664;139.738;2022-10-26T07:43:07;25.40;25.70
9414;DHT22;4746;35.664;139.738;2022-10-26T07:45:34;25.00;26.00
9414;DHT22;4746;35.664;139.738;2022-10-26T07:48:02;24.70;26.30
9414;DHT22;4746;35.664;139.738;2022-10-26T07:50:30;24.30;27.60
9414;DHT22;4746;35.664;139.738;2022-10-26T07:52:58;23.90;30.10
9414;DHT22;4746;35.664;139.738;2022-10-26T07:55:26;23.50;33.50
9414;DHT22;4746;35.664;139.738;2022-10-26T07:57:54;23.20;35.60
9414;DHT22;4746;35.664;139.738;2022-10-26T08:00:21;22.90;37.00
9414;DHT22;4746;35.664;139.738;2022-10-26T08:02:49;22.60;38.90
9414;DHT22;4746;35.664;139.738;2022-10-26T08:05:17;22.40;40.70
9414;DHT22;4746;35.664;139.738;2022-10-26T08:07:45;22.00;42.60
9414;DHT22;4746;35.664;139.738;2022-10-26T08:10:13;21.60;44.50
9414;DHT22;4746;35.664;139.738;2022-10-26T08:12:42;21.40;45.70
9414;DHT22;4746;35.664;139.738;2022-10-26T08:15:11;21.20;47.10
9414;DHT22;4746;35.664;139.738;2022-10-26T08:17:39;21.00;48.60
9414;DHT22;4746;35.664;139.738;2022-10-26T08:20:07;20.70;49.80
9414;DHT22;4746;35.664;139.738;2022-10-26T08:22:35;20.40;51.90
9414;DHT22;4746;35.664;139.738;2022-10-26T08:25:02;20.20;53.00
9414;DHT22;4746;35.664;139.738;2022-10-26T08:27:30;20.10;54.00
9414;DHT22;4746;35.664;139.738;2022-10-26T08:29:58;19.90;55.80
9414;DHT22;4746;35.664;139.738;2022-10-26T08:32:25;19.70;56.80
9414;DHT22;4746;35.664;139.738;2022-10-26T08:34:53;19.50;58.80
9414;DHT22;4746;35.664;139.738;2022-10-26T08:37:20;19.40;60.50
9414;DHT22;4746;35.664;139.738;2022-10-26T08:39:48;19.10;64.10
9414;DHT22;4746;35.664;139.738;2022-10-26T08:42:27;18.90;65.40
9414;DHT22;4746;35.664;139.738;2022-10-26T08:45:34;18.80;68.90
9414;DHT22;4746;35.664;139.738;2022-10-26T08:48:19;18.70;70.60
9414;DHT22;4746;35.664;139.738;2022-10-26T08:51:00;18.60;71.00
9414;DHT22;4746;35.664;139.738;2022-10-26T08:53:42;18.40;73.70
9414;DHT22;4746;35.664;139.738;2022-10-26T08:56:39;18.30;76.50
9414;DHT22;4746;35.664;139.738;2022-10-26T08:59:28;18.10;81.60
9414;DHT22;4746;35.664;139.738;2022-10-26T09:02:16;18.00;84.50
9414;DHT22;4746;35.664;139.738;2022-10-26T09:04:44;17.90;87.00
9414;DHT22;4746;35.664;139.738;2022-10-26T09:24:33;17.50;95.50
9414;DHT22;4746;35.664;139.738;2022-10-26T09:27:40;17.40;95.70
9414;DHT22;4746;35.664;139.738;2022-10-26T09:30:18;17.30;96.60
9414;DHT22;4746;35.664;139.738;2022-10-26T09:33:15;17.30;97.00
9414;DHT22;4746;35.664;139.738;2022-10-26T09:36:04;17.20;98.60
9414;DHT22;4746;35.664;139.738;2022-10-26T09:39:13;17.20;99.30
9414;DHT22;4746;35.664;139.738;2022-10-26T09:42:20;17.10;99.50
9414;DHT22;4746;35.664;139.738;2022-10-26T09:45:36;17.00;99.90
9414;DHT22;4746;35.664;139.738;2022-10-26T09:48:35;17.00;99.90
9414;DHT22;4746;35.664;139.738;2022-10-26T09:51:11;16.90;99.90
9414;DHT22;4746;35.664;139.738;2022-10-26T09:53:41;16.90;99.90
9414;DHT22;4746;35.664;139.738;2022-10-26T09:56:12;16.90;99.90
9414;DHT22;4746;35.664;139.738;2022-10-26T09:59:01;16.80;99.90
9414;DHT22;4746;35.664;139.738;2022-10-26T10:01:33;16.80;99.90
9414;DHT22;4746;35.664;139.738;2022-10-26T10:04:15;16.80;99.90
9414;DHT22;4746;35.664;139.738;2022-10-26T10:07:10;16.80;99.90
9414;DHT22;4746;35.664;139.738;2022-10-26T10:09:39;16.70;99.90
9414;DHT22;4746;35.664;139.738;2022-10-26T10:12:18;16.70;99.90
9414;DHT22;4746;35.664;139.738;2022-10-26T10:14:59;16.60;99.90
9414;DHT22;4746;35.664;139.738;2022-10-26T10:17:27;16.60;99.90
9414;DHT22;4746;35.664;139.738;2022-10-26T10:20:06;16.50;99.90
9414;DHT22;4746;35.664;139.738;2022-10-26T10:22:58;16.50;99.90
9414;DHT22;4746;35.664;139.738;2022-10-26T10:25:38;16.40;99.90
9414;DHT22;4746;35.664;139.738;2022-10-26T10:28:22;16.40;99.90
9414;DHT22;4746;35.664;139.738;2022-10-26T10:30:57;16.40;99.90
9414;DHT22;4746;35.664;139.738;2022-10-26T10:33:39;16.30;99.90
9414;DHT22;4746;35.664;139.738;2022-10-26T10:36:18;16.30;99.90
9414;DHT22;4746;35.664;139.738;2022-10-26T10:38:49;16.20;99.90
9414;DHT22;4746;35.664;139.738;2022-10-26T10:41:31;16.20;99.90
9414;DHT22;4746;35.664;139.738;2022-10-26T10:44:21;16.20;99.90
9414;DHT22;4746;35.664;139.738;2022-10-26T10:47:03;16.10;99.90
9414;DHT22;4746;35.664;139.738;2022-10-26T10:49:33;16.10;99.90
9414;DHT22;4746;35.664;139.738;2022-10-26T10:52:00;16.10;99.90
9414;DHT22;4746;35.664;139.738;2022-10-26T10:54:37;16.00;99.90
9414;DHT22;4746;35.664;139.738;2022-10-26T11:00:19;16.00;99.90
9414;DHT22;4746;35.664;139.738;2022-10-26T11:08:20;15.90;99.90
9414;DHT22;4746;35.664;139.738;2022-10-26T11:11:02;15.90;99.90
9414;DHT22;4746;35.664;139.738;2022-10-26T11:16:36;15.90;99.90
9414;DHT22;4746;35.664;139.738;2022-10-26T11:21:55;15.90;99.90
9414;DHT22;4746;35.664;139.738;2022-10-26T11:32:59;15.80;99.90
9414;DHT22;4746;35.664;139.738;2022-10-26T11:38:29;15.70;99.90
9414;DHT22;4746;35.664;139.738;2022-10-26T11:46:53;15.60;99.90
9414;DHT22;4746;35.664;139.738;2022-10-26T11:52:44;15.60;99.90
9414;DHT22;4746;35.664;139.738;2022-10-26T11:55:18;15.50;99.90
9414;DHT22;4746;35.664;139.738;2022-10-26T11:57:46;15.50;99.90
9414;DHT22;4746;35.664;139.738;2022-10-26T12:00:18;15.50;99.90
9414;DHT22;4746;35.664;139.738;2022-10-26T12:03:11;15.50;99.90
9414;DHT22;4746;35.664;139.738;2022-10-26T12:11:07;15.40;99.90
9414;DHT22;4746;35.664;139.738;2022-10-26T12:13:44;15.40;99.90
9414;DHT22;4746;35.664;139.738;2022-10-26T12:16:41;15.40;99.90
9414;DHT22;4746;35.664;139.738;2022-10-26T12:19:25;15.40;99.90
9414;DHT22;4746;35.664;139.738;2022-10-26T12:21:56;15.40;99.90
9414;DHT22;4746;35.664;139.738;2022-10-26T12:24:26;15.40;99.90
9414;DHT22;4746;35.664;139.738;2022-10-26T12:27:04;15.40;99.90
9414;DHT22;4746;35.664;139.738;2022-10-26T12:35:35;15.40;99.90
9414;DHT22;4746;35.664;139.738;2022-10-26T12:41:18;15.40;99.90
9414;DHT22;4746;35.664;139.738;2022-10-26T12:43:47;15.40;99.90
9414;DHT22;4746;35.664;139.738;2022-10-26T12:48:47;15.40;99.90
9414;DHT22;4746;35.664;139.738;2022-10-26T13:08:43;15.20;99.90
9414;DHT22;4746;35.664;139.738;2022-10-26T13:14:24;15.10;99.90
9414;DHT22;4746;35.664;139.738;2022-10-26T13:16:58;15.10;99.90
9414;DHT22;4746;35.664;139.738;2022-10-26T13:22:18;15.00;99.90
9414;DHT22;4746;35.664;139.738;2022-10-26T13:24:52;15.00;99.90
9414;DHT22;4746;35.664;139.738;2022-10-26T13:27:39;14.90;99.90
9414;DHT22;4746;35.664;139.738;2022-10-26T13:30:18;14.90;99.90
9414;DHT22;4746;35.664;139.738;2022-10-26T13:33:10;14.90;99.90
9414;DHT22;4746;35.664;139.738;2022-10-26T13:35:44;14.90;99.90
9414;DHT22;4746;35.664;139.738;2022-10-26T13:38:14;14.90;99.90
9414;DHT22;4746;35.664;139.738;2022-10-26T13:40:47;14.90;99.90
9414;DHT22;4746;35.664;139.738;2022-10-26T13:43:21;14.90;99.90
9414;DHT22;4746;35.664;139.738;2022-10-26T13:45:59;14.80;99.90
9414;DHT22;4746;35.664;139.738;2022-10-26T13:48:40;14.80;99.90
9414;DHT22;4746;35.664;139.738;2022-10-26T13:51:22;14.80;99.90
9414;DHT22;4746;35.664;139.738;2022-10-26T14:00:29;14.70;99.90
9414;DHT22;4746;35.664;139.738;2022-10-26T14:02:57;14.70;99.90
9414;DHT22;4746;35.664;139.738;2022-10-26T14:05:25;14.60;99.90
9414;DHT22;4746;35.664;139.738;2022-10-26T14:07:57;14.60;99.90
9414;DHT22;4746;35.664;139.738;2022-10-26T14:10:38;14.60;99.90
9414;DHT22;4746;35.664;139.738;2022-10-26T14:13:11;14.60;99.90
9414;DHT22;4746;35.664;139.738;2022-10-26T14:15:48;14.60;99.90
9414;DHT22;4746;35.664;139.738;2022-10-26T14:18:36;14.50;99.90
9414;DHT22;4746;35.664;139.738;2022-10-26T14:21:14;14.50;99.90
9414;DHT22;4746;35.664;139.738;2022-10-26T14:23:58;14.50;99.90
9414;DHT22;4746;35.664;139.738;2022-10-26T14:26:40;14.50;99.90
9414;DHT22;4746;35.664;139.738;2022-10-26T14:29:19;14.50;99.90
9414;DHT22;4746;35.664;139.738;2022-10-26T14:31:49;14.50;99.90
9414;DHT22;4746;35.664;139.738;2022-10-26T14:34:18;14.50;99.90
9414;DHT22;4746;35.664;139.738;2022-10-26T14:36:53;14.50;99.90
9414;DHT22;4746;35.664;139.738;2022-10-26T14:39:43;14.40;99.90
9414;DHT22;4746;35.664;139.738;2022-10-26T14:44:49;14.30;99.90
9414;DHT22;4746;35.664;139.738;2022-10-26T14:47:23;14.30;99.90
9414;DHT22;4746;35.664;139.738;2022-10-26T14:49:57;14.40;99.90
9414;DHT22;4746;35.664;139.738;2022-10-26T14:52:33;14.40;99.90
9414;DHT22;4746;35.664;139.738;2022-10-26T14:55:15;14.40;99.90
9414;DHT22;4746;35.664;139.738;2022-10-26T14:57:45;14.40;99.90
9414;DHT22;4746;35.664;139.738;2022-10-26T15:00:19;14.30;99.90
9414;DHT22;4746;35.664;139.738;2022-10-26T15:02:54;14.30;99.90
9414;DHT22;4746;35.664;139.738;2022-10-26T15:05:26;14.30;99.90
9414;DHT22;4746;35.664;139.738;2022-10-26T15:07:59;14.30;99.90
9414;DHT22;4746;35.664;139.738;2022-10-26T15:16:14;14.20;99.90
9414;DHT22;4746;35.664;139.738;2022-10-26T15:18:51;14.10;99.90
9414;DHT22;4746;35.664;139.738;2022-10-26T15:21:37;14.10;99.90
9414;DHT22;4746;35.664;139.738;2022-10-26T15:24:28;14.10;99.90
9414;DHT22;4746;35.664;139.738;2022-10-26T15:26:59;14.10;99.90
9414;DHT22;4746;35.664;139.738;2022-10-26T15:29:41;14.00;99.90
9414;DHT22;4746;35.664;139.738;2022-10-26T15:32:31;14.00;99.90
9414;DHT22;4746;35.664;139.738;2022-10-26T15:37:46;13.90;99.90
9414;DHT22;4746;35.664;139.738;2022-10-26T15:40:14;13.90;99.90
9414;DHT22;4746;35.664;139.738;2022-10-26T15:42:45;13.80;99.90
9414;DHT22;4746;35.664;139.738;2022-10-26T15:45:24;13.80;99.90
9414;DHT22;4746;35.664;139.738;2022-10-26T15:47:58;13.80;99.90
9414;DHT22;4746;35.664;139.738;2022-10-26T15:50:42;13.70;99.90
9414;DHT22;4746;35.664;139.738;2022-10-26T15:53:16;13.70;99.90
9414;DHT22;4746;35.664;139.738;2022-10-26T15:55:47;13.70;99.90
9414;DHT22;4746;35.664;139.738;2022-10-26T15:58:19;13.60;99.90
9414;DHT22;4746;35.664;139.738;2022-10-26T16:00:48;13.60;99.90
9414;DHT22;4746;35.664;139.738;2022-10-26T16:03:21;13.60;99.90
9414;DHT22;4746;35.664;139.738;2022-10-26T16:05:56;13.60;99.90
9414;DHT22;4746;35.664;139.738;2022-10-26T16:08:29;13.60;99.90
9414;DHT22;4746;35.664;139.738;2022-10-26T16:10:57;13.50;99.90
9414;DHT22;4746;35.664;139.738;2022-10-26T16:13:25;13.50;99.90
9414;DHT22;4746;35.664;139.738;2022-10-26T16:15:52;13.50;99.90
9414;DHT22;4746;35.664;139.738;2022-10-26T16:18:20;13.50;99.90
9414;DHT22;4746;35.664;139.738;2022-10-26T16:20:47;13.40;99.90
9414;DHT22;4746;35.664;139.738;2022-10-26T16:23:15;13.40;99.90
9414;DHT22;4746;35.664;139.738;2022-10-26T16:25:44;13.30;99.90
9414;DHT22;4746;35.664;139.738;2022-10-26T16:28:15;13.30;99.90
9414;DHT22;4746;35.664;139.738;2022-10-26T16:30:43;13.30;99.90
9414;DHT22;4746;35.664;139.738;2022-10-26T16:33:11;13.20;99.90
9414;DHT22;4746;35.664;139.738;2022-10-26T16:35:39;13.20;99.90
9414;DHT22;4746;35.664;139.738;2022-10-26T16:38:06;13.20;99.90
9414;DHT22;4746;35.664;139.738;2022-10-26T16:40:35;13.20;99.90
9414;DHT22;4746;35.664;139.738;2022-10-26T16:43:02;13.20;99.90
9414;DHT22;4746;35.664;139.738;2022-10-26T16:45:30;13.20;99.90
9414;DHT22;4746;35.664;139.738;2022-10-26T16:47:57;13.20;99.90
9414;DHT22;4746;35.664;139.738;2022-10-26T16:50:25;13.20;99.90
9414;DHT22;4746;35.664;139.738;2022-10-26T16:52:52;13.20;99.90
9414;DHT22;4746;35.664;139.738;2022-10-26T16:55:20;13.10;99.90
9414;DHT22;4746;35.664;139.738;2022-10-26T16:57:49;13.10;99.90
9414;DHT22;4746;35.664;139.738;2022-10-26T17:00:17;13.10;99.90
9414;DHT22;4746;35.664;139.738;2022-10-26T17:02:45;13.10;99.90
9414;DHT22;4746;35.664;139.738;2022-10-26T17:05:12;13.10;99.90
9414;DHT22;4746;35.664;139.738;2022-10-26T17:07:40;13.00;99.90
9414;DHT22;4746;35.664;139.738;2022-10-26T17:10:07;13.00;99.90
9414;DHT22;4746;35.664;139.738;2022-10-26T17:12:35;13.00;99.90
9414;DHT22;4746;35.664;139.738;2022-10-26T17:15:03;13.00;99.90
9414;DHT22;4746;35.664;139.738;2022-10-26T17:17:30;13.10;99.90
9414;DHT22;4746;35.664;139.738;2022-10-26T17:19:58;13.10;99.90
9414;DHT22;4746;35.664;139.738;2022-10-26T17:22:27;13.10;99.90
9414;DHT22;4746;35.664;139.738;2022-10-26T17:24:54;13.00;99.90
9414;DHT22;4746;35.664;139.738;2022-10-26T17:27:22;13.10;99.90
9414;DHT22;4746;35.664;139.738;2022-10-26T17:29:51;13.00;99.90
9414;DHT22;4746;35.664;139.738;2022-10-26T17:32:19;13.00;99.90
9414;DHT22;4746;35.664;139.738;2022-10-26T17:34:48;13.00;99.90
9414;DHT22;4746;35.664;139.738;2022-10-26T17:37:15;13.00;99.90
9414;DHT22;4746;35.664;139.738;2022-10-26T17:39:42;13.00;99.90
9414;DHT22;4746;35.664;139.738;2022-10-26T17:42:10;13.00;99.90
9414;DHT22;4746;35.664;139.738;2022-10-26T17:44:37;13.00;99.90
9414;DHT22;4746;35.664;139.738;2022-10-26T17:47:05;13.00;99.90
9414;DHT22;4746;35.664;139.738;2022-10-26T17:49:34;13.00;99.90
9414;DHT22;4746;35.664;139.738;2022-10-26T17:52:01;12.90;99.90
9414;DHT22;4746;35.664;139.738;2022-10-26T17:54:29;12.90;99.90
9414;DHT22;4746;35.664;139.738;2022-10-26T17:56:59;12.90;99.90
9414;DHT22;4746;35.664;139.738;2022-10-26T17:59:26;12.80;99.90
9414;DHT22;4746;35.664;139.738;2022-10-26T18:01:54;12.80;99.90
9414;DHT22;4746;35.664;139.738;2022-10-26T18:04:21;12.70;99.90
9414;DHT22;4746;35.664;139.738;2022-10-26T18:06:49;12.70;99.90
9414;DHT22;4746;35.664;139.738;2022-10-26T18:09:16;12.70;99.90
9414;DHT22;4746;35.664;139.738;2022-10-26T18:11:44;12.70;99.90
9414;DHT22;4746;35.664;139.738;2022-10-26T18:14:11;12.70;99.90
9414;DHT22;4746;35.664;139.738;2022-10-26T18:16:39;12.60;99.90
9414;DHT22;4746;35.664;139.738;2022-10-26T18:19:06;12.60;99.90
9414;DHT22;4746;35.664;139.738;2022-10-26T18:21:35;12.50;99.90
9414;DHT22;4746;35.664;139.738;2022-10-26T18:24:06;12.50;99.90
9414;DHT22;4746;35.664;139.738;2022-10-26T18:26:38;12.50;99.90
9414;DHT22;4746;35.664;139.738;2022-10-26T18:29:05;12.50;99.90
9414;DHT22;4746;35.664;139.738;2022-10-26T18:31:33;12.40;99.90
9414;DHT22;4746;35.664;139.738;2022-10-26T18:34:03;12.40;99.90
9414;DHT22;4746;35.664;139.738;2022-10-26T18:36:32;12.40;99.90
9414;DHT22;4746;35.664;139.738;2022-10-26T18:39:00;12.30;99.90
9414;DHT22;4746;35.664;139.738;2022-10-26T18:41:27;12.30;99.90
9414;DHT22;4746;35.664;139.738;2022-10-26T18:43:55;12.30;99.90